Buoy 44906

sailwx.info

Track history (hours):
 
Tides and Currents Weather Stations Pressure Air Temp Water Temp Dewpoint Dewpoint Depression Visibility Wind Speed Wind Dir Waves Ship Positions

Drifting buoy 44906

Last reported at 2017-May-30 00:00 UTC. Time now 2017-May-30 05:31 UTC.
Position N 37°25' W 033°13'.

Water temperature 18.8 ° C

Date/timePositionNaut miles runAvg speedWind from/ knotsBaromVisibWave heightAir tempDewpointWater temp
2017-May-30 00:00N 37°25' W 033°13'1 1.1 18.8
2017-May-29 23:00N 37°25' W 033°11'1 0.8 18.8
2017-May-29 22:00N 37°25' W 033°11'1 0.8 18.9
2017-May-29 21:00N 37°25' W 033°11'0 0.0 18.9
2017-May-29 20:00N 37°25' W 033°11'2 1.6 18.9
2017-May-29 19:00N 37°25' W 033°13'1 0.6 18.9
2017-May-29 18:00N 37°25' W 033°13'0 0.0 19.0
2017-May-29 17:00N 37°25' W 033°13'1 1.4 19.0
2017-May-29 16:00N 37°25' W 033°15'0 0.0 18.9
2017-May-29 15:00N 37°25' W 033°15'1 1.3 18.9
2017-May-29 14:00N 37°24' W 033°14'0 0.5 18.7
2017-May-29 13:00N 37°24' W 033°14'0 0.0 18.6
2017-May-29 12:00N 37°24' W 033°14'0 0.0 18.4
2017-May-29 11:00N 37°24' W 033°14'1 0.8 18.3
2017-May-29 10:00N 37°23' W 033°14'1 1.2 18.3
2017-May-29 09:00N 37°25' W 033°14'2 1.9 18.2
2017-May-29 08:00N 37°25' W 033°12'2 1.6 18.2
2017-May-29 07:00N 37°25' W 033°14'0 0.0 18.2
2017-May-29 06:00N 37°25' W 033°14'2 2.3 18.2
2017-May-29 05:00N 37°27' W 033°16'0 0.1 18.2
2017-May-29 00:00N 37°27' W 033°16'2 2.0 18.2
2017-May-28 23:00N 37°28' W 033°14'2 1.9 18.2
2017-May-28 22:00N 37°29' W 033°16'2 1.9 18.2
2017-May-28 21:00N 37°27' W 033°15'0 0.5 18.3
2017-May-28 20:00N 37°27' W 033°16'0 0.0 18.3
2017-May-28 19:00N 37°27' W 033°16'0 0.0 18.3
2017-May-28 18:00N 37°27' W 033°16'0 0.0 18.3
2017-May-28 17:00N 37°27' W 033°16'0 0.0 18.3
2017-May-28 16:00N 37°27' W 033°16'0 0.0 18.2
2017-May-28 15:00N 37°27' W 033°16'1 1.4 18.2
2017-May-28 14:00N 37°27' W 033°14'0 0.0 18.1
2017-May-28 12:00N 37°27' W 033°14'1 0.8 18.1
2017-May-28 11:00N 37°28' W 033°13'0 0.0 18.1
2017-May-28 10:00N 37°28' W 033°13'0 0.0 18.0
2017-May-28 09:00N 37°28' W 033°13'2 2.0 18.0
2017-May-28 08:00N 37°29' W 033°12'5 4.8 18.1
2017-May-28 07:00N 37°30' W 033°18'0 0.0 18.1
2017-May-28 06:00N 37°30' W 033°18'0 0.0 18.1
2017-May-28 05:00N 37°30' W 033°18'0 0.1 18.1
2017-May-28 00:00N 37°30' W 033°17'0 0.0 18.2
2017-May-27 23:00N 37°30' W 033°17'0 0.0 18.2
2017-May-27 22:00N 37°30' W 033°17'0 0.5 18.2
2017-May-27 21:00N 37°30' W 033°17'0 0.0 18.2
2017-May-27 20:00N 37°30' W 033°17'0 0.0 18.3
2017-May-27 19:00N 37°30' W 033°17'0 0.0 18.3
2017-May-27 18:00N 37°30' W 033°17'0 0.0 18.3
2017-May-27 17:00N 37°30' W 033°17'1 1.1 18.2
2017-May-27 16:00N 37°31' W 033°16'0 0.0 18.2
2017-May-27 15:00N 37°31' W 033°16'2 0.8 18.1
2017-May-27 12:00N 37°31' W 033°13'0 0.0 17.9
2017-May-27 11:00N 37°31' W 033°13'1 1.3 17.9
2017-May-27 10:00N 37°32' W 033°13'0 0.5 17.9
2017-May-27 09:00N 37°32' W 033°14'2 1.9 17.9
2017-May-27 08:00N 37°34' W 033°12'0 0.0 17.9
2017-May-27 07:00N 37°34' W 033°12'2 2.5 17.9
2017-May-27 06:00N 37°34' W 033°15'0 0.0 17.9
2017-May-27 05:00N 37°34' W 033°15'0 0.0 17.9
2017-May-27 04:00N 37°34' W 033°15'0 0.0 17.9
2017-May-27 00:00N 37°34' W 033°15'1 1.1 17.9
2017-May-26 23:00N 37°34' W 033°14'0 0.0 18.0
2017-May-26 22:00N 37°34' W 033°14'0 0.5 18.0
2017-May-26 21:00N 37°34' W 033°13'1 0.8 18.0
2017-May-26 20:00N 37°34' W 033°13'0 0.0 18.0
2017-May-26 19:00N 37°34' W 033°13'3 0.9 18.0
2017-May-26 16:00N 37°37' W 033°11'0 0.0 18.0
2017-May-26 15:00N 37°37' W 033°11'2 0.8
2017-May-26 12:00N 37°39' W 033°12'3 2.6 17.9
2017-May-26 11:00N 37°41' W 033°14'0 0.0 17.9
2017-May-26 10:00N 37°41' W 033°14'1 0.6 17.9
2017-May-26 09:00N 37°41' W 033°14'2 1.2 17.9
2017-May-26 07:00N 37°41' W 033°17'3 3.1 17.9
2017-May-26 06:00N 37°43' W 033°21'0 0.0 18.0
2017-May-26 05:00N 37°43' W 033°21'0 0.0 18.0
2017-May-26 04:00N 37°43' W 033°21'0 0.0 18.0
2017-May-26 03:00N 37°43' W 033°21'0 0.0 18.0
2017-May-26 01:00N 37°43' W 033°21'0 0.0 18.1
2017-May-26 00:00N 37°43' W 033°21'1 0.8 18.1
2017-May-25 23:00N 37°43' W 033°20'1 0.8 18.1
2017-May-25 22:00N 37°44' W 033°21'1 0.8 18.1
2017-May-25 21:00N 37°43' W 033°20'0 0.5 18.1
2017-May-25 20:00N 37°43' W 033°21'0 0.0 18.2
2017-May-25 19:00N 37°43' W 033°21'0 0.0 18.2
2017-May-25 17:00N 37°43' W 033°21'0 0.0 18.2
2017-May-25 16:00N 37°43' W 033°21'0 0.0 18.2
2017-May-25 15:00N 37°43' W 033°21'3 1.3 18.1
2017-May-25 13:00N 37°45' W 033°19'2 1.5 18.0
2017-May-25 12:00N 37°46' W 033°20'1 1.1 18.0
2017-May-25 11:00N 37°47' W 033°21'0 0.0 18.0
2017-May-25 10:00N 37°47' W 033°21'2 1.9 18.0
2017-May-25 09:00N 37°48' W 033°23'0 0.0 17.9
2017-May-25 08:00N 37°48' W 033°23'0 0.0 18.0
2017-May-25 07:00N 37°48' W 033°23'1 1.4 18.0
2017-May-25 06:00N 37°48' W 033°25'0 0.0 18.0
2017-May-25 05:00N 37°48' W 033°25'0 0.0 18.0
2017-May-25 00:00N 37°48' W 033°25'0 0.0 18.0
2017-May-24 23:00N 37°48' W 033°25'1 0.6 18.0
2017-May-24 22:00N 37°49' W 033°25'0 0.5 18.0
2017-May-24 21:00N 37°49' W 033°25'0 0.0 18.1
2017-May-24 20:00N 37°49' W 033°25'1 1.1 18.1
2017-May-24 19:00N 37°49' W 033°24'2 1.5 18.1
2017-May-24 18:00N 37°50' W 033°25'0 0.0 18.1
2017-May-24 17:00N 37°50' W 033°25'0 0.5 18.1
2017-May-24 16:00N 37°50' W 033°25'0 0.0 18.1
2017-May-24 15:00N 37°50' W 033°25'1 1.3 18.1
2017-May-24 14:00N 37°52' W 033°25'0 0.0 18.0
2017-May-24 13:00N 37°52' W 033°25'2 1.5 18.0
2017-May-24 12:00N 37°52' W 033°27'0 0.0 18.0
2017-May-24 11:00N 37°52' W 033°27'0 0.5 17.9
2017-May-24 10:00N 37°52' W 033°28'0 0.5 17.9
2017-May-24 09:00N 37°52' W 033°28'0 0.5 17.9
2017-May-24 08:00N 37°52' W 033°29'1 0.8 17.9
2017-May-24 07:00N 37°53' W 033°28'2 1.5 17.9
2017-May-24 06:00N 37°52' W 033°30'1 0.2 17.9
2017-May-24 00:00N 37°53' W 033°31'2 1.5 18.0
2017-May-23 23:00N 37°53' W 033°29'2 1.5 18.0
2017-May-23 22:00N 37°54' W 033°31'0 0.5 18.0
2017-May-23 21:00N 37°54' W 033°32'1 0.8 18.0
2017-May-23 20:00N 37°55' W 033°32'0 0.0 18.0
2017-May-23 19:00N 37°55' W 033°32'2 2.0 18.0
2017-May-23 18:00N 37°55' W 033°35'0 0.0 18.0
2017-May-23 17:00N 37°55' W 033°35'1 0.9 18.0
2017-May-23 16:00N 37°55' W 033°36'2 0.5 18.0
2017-May-23 13:00N 37°55' W 033°38'0 0.0 17.9
2017-May-23 12:00N 37°55' W 033°38'0 0.5 17.9
2017-May-23 11:00N 37°55' W 033°37'0 0.0 17.9
2017-May-23 10:00N 37°55' W 033°37'0 0.5 17.9
2017-May-23 09:00N 37°55' W 033°38'0 0.0 17.9
2017-May-23 08:00N 37°55' W 033°38'0 0.0 17.9
2017-May-23 07:00N 37°55' W 033°38'1 0.8 17.9
2017-May-23 06:00N 37°55' W 033°38'3 2.7 17.9
2017-May-23 05:00N 37°56' W 033°41'0 0.0 17.9
2017-May-23 04:00N 37°56' W 033°41'1 0.2 17.9
2017-May-23 00:00N 37°57' W 033°41'1 0.7 17.9
2017-May-22 22:00N 37°57' W 033°43'1 0.8 17.9
2017-May-22 21:00N 37°58' W 033°44'1 1.1 17.9
2017-May-22 20:00N 37°57' W 033°45'0 0.0 17.9
2017-May-22 19:00N 37°57' W 033°45'2 2.2 17.9
2017-May-22 18:00N 37°56' W 033°47'0 0.0 17.9
2017-May-22 16:00N 37°56' W 033°47'1 1.3 18.0
2017-May-22 15:00N 37°55' W 033°47'0 0.0 17.9
2017-May-22 13:00N 37°55' W 033°47'1 1.1 17.9
2017-May-22 12:00N 37°55' W 033°48'0 0.0 17.9
2017-May-22 11:00N 37°55' W 033°48'0 0.0 17.9
2017-May-22 10:00N 37°55' W 033°48'1 1.1 17.9
2017-May-22 09:00N 37°56' W 033°49'1 0.8 17.9
2017-May-22 08:00N 37°56' W 033°50'0 0.0 17.9
2017-May-22 07:00N 37°56' W 033°50'2 1.5 17.9
2017-May-22 06:00N 37°57' W 033°52'3 2.7 17.9
2017-May-22 05:00N 37°56' W 033°55'2 2.0 18.0
2017-May-22 04:00N 37°56' W 033°52'2 0.4 18.0
2017-May-22 00:00N 37°56' W 033°54'2 1.5 18.0
2017-May-21 23:00N 37°55' W 033°55'1 0.8 18.1
2017-May-21 22:00N 37°54' W 033°55'0 0.5 18.0
2017-May-21 21:00N 37°54' W 033°55'0 0.0 18.1
2017-May-21 20:00N 37°54' W 033°55'0 0.0 18.1
2017-May-21 19:00N 37°54' W 033°55'1 0.8 18.0
2017-May-21 18:00N 37°55' W 033°56'0 0.0 18.1
2017-May-21 17:00N 37°55' W 033°56'0 0.0 18.1
2017-May-21 16:00N 37°55' W 033°56'0 0.0 18.1
2017-May-21 15:00N 37°55' W 033°56'0 0.0 18.0
2017-May-21 14:00N 37°55' W 033°56'1 0.6 18.0
2017-May-21 12:00N 37°56' W 033°56'0 0.0 17.8
2017-May-21 11:00N 37°56' W 033°56'2 2.0 17.8
2017-May-21 10:00N 37°56' W 033°58'0 0.0 17.8
2017-May-21 08:00N 37°56' W 033°58'0 0.0 17.8
2017-May-21 07:00N 37°56' W 033°58'2 1.5 17.8
2017-May-21 06:00N 37°56' W 034°00'0 0.0 17.8
2017-May-21 05:00N 37°56' W 034°00'2 2.4 17.8
2017-May-21 04:00N 37°53' W 034°00'0 0.0 17.8
2017-May-21 00:00N 37°53' W 034°00'2 2.0 17.8
2017-May-20 23:00N 37°53' W 034°02'2 2.2 17.8
2017-May-20 22:00N 37°54' W 034°00'1 0.8 17.8
2017-May-20 21:00N 37°53' W 033°59'1 1.2 17.8
2017-May-20 20:00N 37°55' W 033°59'0 0.2 17.9
2017-May-20 18:00N 37°55' W 034°00'0 0.0 17.9
2017-May-20 17:00N 37°55' W 034°00'2 1.5 17.8
2017-May-20 16:00N 37°56' W 034°01'1 0.5 17.8
2017-May-20 14:00N 37°56' W 034°02'1 1.1 17.7
2017-May-20 13:00N 37°55' W 034°04'0 0.0 17.7
2017-May-20 12:00N 37°55' W 034°04'0 0.0 17.7
2017-May-20 11:00N 37°55' W 034°04'1 0.8 17.7
2017-May-20 10:00N 37°55' W 034°04'1 0.9 17.7
2017-May-20 09:00N 37°55' W 034°05'0 0.0 17.7
2017-May-20 08:00N 37°55' W 034°05'1 1.1 17.8
2017-May-20 07:00N 37°54' W 034°04'2 1.9 17.8
2017-May-20 06:00N 37°54' W 034°07'2 1.5 17.8
2017-May-20 05:00N 37°53' W 034°05'1 0.2 17.8
2017-May-20 00:00N 37°53' W 034°07'   17.8
Track history (hours):
 
Tides and Currents Weather Stations Pressure Air Temp Water Temp Dewpoint Dewpoint Depression Visibility Wind Speed Wind Dir Waves Ship Positions

Drifting buoy 44906

Last reported at 2017-May-30 00:00 UTC. Time now 2017-May-30 05:31 UTC.
Position N 37°25' W 033°13'.

Water temperature 18.8 ° C

Date/timePositionNaut miles runAvg speedWind from/ knotsBaromVisibWave heightAir tempDewpointWater temp
2017-May-30 00:00N 37°25' W 033°13'1 1.1 18.8
2017-May-29 23:00N 37°25' W 033°11'1 0.8 18.8
2017-May-29 22:00N 37°25' W 033°11'1 0.8 18.9
2017-May-29 21:00N 37°25' W 033°11'0 0.0 18.9
2017-May-29 20:00N 37°25' W 033°11'2 1.6 18.9
2017-May-29 19:00N 37°25' W 033°13'1 0.6 18.9
2017-May-29 18:00N 37°25' W 033°13'0 0.0 19.0
2017-May-29 17:00N 37°25' W 033°13'1 1.4 19.0
2017-May-29 16:00N 37°25' W 033°15'0 0.0 18.9
2017-May-29 15:00N 37°25' W 033°15'1 1.3 18.9
2017-May-29 14:00N 37°24' W 033°14'0 0.5 18.7
2017-May-29 13:00N 37°24' W 033°14'0 0.0 18.6
2017-May-29 12:00N 37°24' W 033°14'0 0.0 18.4
2017-May-29 11:00N 37°24' W 033°14'1 0.8 18.3
2017-May-29 10:00N 37°23' W 033°14'1 1.2 18.3
2017-May-29 09:00N 37°25' W 033°14'2 1.9 18.2
2017-May-29 08:00N 37°25' W 033°12'2 1.6 18.2
2017-May-29 07:00N 37°25' W 033°14'0 0.0 18.2
2017-May-29 06:00N 37°25' W 033°14'2 2.3 18.2
2017-May-29 05:00N 37°27' W 033°16'0 0.1 18.2
2017-May-29 00:00N 37°27' W 033°16'2 2.0 18.2
2017-May-28 23:00N 37°28' W 033°14'2 1.9 18.2
2017-May-28 22:00N 37°29' W 033°16'2 1.9 18.2
2017-May-28 21:00N 37°27' W 033°15'0 0.5 18.3
2017-May-28 20:00N 37°27' W 033°16'0 0.0 18.3
2017-May-28 19:00N 37°27' W 033°16'0 0.0 18.3
2017-May-28 18:00N 37°27' W 033°16'0 0.0 18.3
2017-May-28 17:00N 37°27' W 033°16'0 0.0 18.3
2017-May-28 16:00N 37°27' W 033°16'0 0.0 18.2
2017-May-28 15:00N 37°27' W 033°16'1 1.4 18.2
2017-May-28 14:00N 37°27' W 033°14'0 0.0 18.1
2017-May-28 12:00N 37°27' W 033°14'1 0.8 18.1
2017-May-28 11:00N 37°28' W 033°13'0 0.0 18.1
2017-May-28 10:00N 37°28' W 033°13'0 0.0 18.0
2017-May-28 09:00N 37°28' W 033°13'2 2.0 18.0
2017-May-28 08:00N 37°29' W 033°12'5 4.8 18.1
2017-May-28 07:00N 37°30' W 033°18'0 0.0 18.1
2017-May-28 06:00N 37°30' W 033°18'0 0.0 18.1
2017-May-28 05:00N 37°30' W 033°18'0 0.1 18.1
2017-May-28 00:00N 37°30' W 033°17'0 0.0 18.2
2017-May-27 23:00N 37°30' W 033°17'0 0.0 18.2
2017-May-27 22:00N 37°30' W 033°17'0 0.5 18.2
2017-May-27 21:00N 37°30' W 033°17'0 0.0 18.2
2017-May-27 20:00N 37°30' W 033°17'0 0.0 18.3
2017-May-27 19:00N 37°30' W 033°17'0 0.0 18.3
2017-May-27 18:00N 37°30' W 033°17'0 0.0 18.3
2017-May-27 17:00N 37°30' W 033°17'1 1.1 18.2
2017-May-27 16:00N 37°31' W 033°16'0 0.0 18.2
2017-May-27 15:00N 37°31' W 033°16'2 0.8 18.1
2017-May-27 12:00N 37°31' W 033°13'0 0.0 17.9
2017-May-27 11:00N 37°31' W 033°13'1 1.3 17.9
2017-May-27 10:00N 37°32' W 033°13'0 0.5 17.9
2017-May-27 09:00N 37°32' W 033°14'2 1.9 17.9
2017-May-27 08:00N 37°34' W 033°12'0 0.0 17.9
2017-May-27 07:00N 37°34' W 033°12'2 2.5 17.9
2017-May-27 06:00N 37°34' W 033°15'0 0.0 17.9
2017-May-27 05:00N 37°34' W 033°15'0 0.0 17.9
2017-May-27 04:00N 37°34' W 033°15'0 0.0 17.9
2017-May-27 00:00N 37°34' W 033°15'1 1.1 17.9
2017-May-26 23:00N 37°34' W 033°14'0 0.0 18.0
2017-May-26 22:00N 37°34' W 033°14'0 0.5 18.0
2017-May-26 21:00N 37°34' W 033°13'1 0.8 18.0
2017-May-26 20:00N 37°34' W 033°13'0 0.0 18.0
2017-May-26 19:00N 37°34' W 033°13'3 0.9 18.0
2017-May-26 16:00N 37°37' W 033°11'0 0.0 18.0
2017-May-26 15:00N 37°37' W 033°11'2 0.8
2017-May-26 12:00N 37°39' W 033°12'3 2.6 17.9
2017-May-26 11:00N 37°41' W 033°14'0 0.0 17.9
2017-May-26 10:00N 37°41' W 033°14'1 0.6 17.9
2017-May-26 09:00N 37°41' W 033°14'2 1.2 17.9
2017-May-26 07:00N 37°41' W 033°17'3 3.1 17.9
2017-May-26 06:00N 37°43' W 033°21'0 0.0 18.0
2017-May-26 05:00N 37°43' W 033°21'0 0.0 18.0
2017-May-26 04:00N 37°43' W 033°21'0 0.0 18.0
2017-May-26 03:00N 37°43' W 033°21'0 0.0 18.0
2017-May-26 01:00N 37°43' W 033°21'0 0.0 18.1
2017-May-26 00:00N 37°43' W 033°21'1 0.8 18.1
2017-May-25 23:00N 37°43' W 033°20'1 0.8 18.1
2017-May-25 22:00N 37°44' W 033°21'1 0.8 18.1
2017-May-25 21:00N 37°43' W 033°20'0 0.5 18.1
2017-May-25 20:00N 37°43' W 033°21'0 0.0 18.2
2017-May-25 19:00N 37°43' W 033°21'0 0.0 18.2
2017-May-25 17:00N 37°43' W 033°21'0 0.0 18.2
2017-May-25 16:00N 37°43' W 033°21'0 0.0 18.2
2017-May-25 15:00N 37°43' W 033°21'3 1.3 18.1
2017-May-25 13:00N 37°45' W 033°19'2 1.5 18.0
2017-May-25 12:00N 37°46' W 033°20'1 1.1 18.0
2017-May-25 11:00N 37°47' W 033°21'0 0.0 18.0
2017-May-25 10:00N 37°47' W 033°21'2 1.9 18.0
2017-May-25 09:00N 37°48' W 033°23'0 0.0 17.9
2017-May-25 08:00N 37°48' W 033°23'0 0.0 18.0
2017-May-25 07:00N 37°48' W 033°23'1 1.4 18.0
2017-May-25 06:00N 37°48' W 033°25'0 0.0 18.0
2017-May-25 05:00N 37°48' W 033°25'0 0.0 18.0
2017-May-25 00:00N 37°48' W 033°25'0 0.0 18.0
2017-May-24 23:00N 37°48' W 033°25'1 0.6 18.0
2017-May-24 22:00N 37°49' W 033°25'0 0.5 18.0
2017-May-24 21:00N 37°49' W 033°25'0 0.0 18.1
2017-May-24 20:00N 37°49' W 033°25'1 1.1 18.1
2017-May-24 19:00N 37°49' W 033°24'2 1.5 18.1
2017-May-24 18:00N 37°50' W 033°25'0 0.0 18.1
2017-May-24 17:00N 37°50' W 033°25'0 0.5 18.1
2017-May-24 16:00N 37°50' W 033°25'0 0.0 18.1
2017-May-24 15:00N 37°50' W 033°25'1 1.3 18.1
2017-May-24 14:00N 37°52' W 033°25'0 0.0 18.0
2017-May-24 13:00N 37°52' W 033°25'2 1.5 18.0
2017-May-24 12:00N 37°52' W 033°27'0 0.0 18.0
2017-May-24 11:00N 37°52' W 033°27'0 0.5 17.9
2017-May-24 10:00N 37°52' W 033°28'0 0.5 17.9
2017-May-24 09:00N 37°52' W 033°28'0 0.5 17.9
2017-May-24 08:00N 37°52' W 033°29'1 0.8 17.9
2017-May-24 07:00N 37°53' W 033°28'2 1.5 17.9
2017-May-24 06:00N 37°52' W 033°30'1 0.2 17.9
2017-May-24 00:00N 37°53' W 033°31'2 1.5 18.0
2017-May-23 23:00N 37°53' W 033°29'2 1.5 18.0
2017-May-23 22:00N 37°54' W 033°31'0 0.5 18.0
2017-May-23 21:00N 37°54' W 033°32'1 0.8 18.0
2017-May-23 20:00N 37°55' W 033°32'0 0.0 18.0
2017-May-23 19:00N 37°55' W 033°32'2 2.0 18.0
2017-May-23 18:00N 37°55' W 033°35'0 0.0 18.0
2017-May-23 17:00N 37°55' W 033°35'1 0.9 18.0
2017-May-23 16:00N 37°55' W 033°36'2 0.5 18.0
2017-May-23 13:00N 37°55' W 033°38'0 0.0 17.9
2017-May-23 12:00N 37°55' W 033°38'0 0.5 17.9
2017-May-23 11:00N 37°55' W 033°37'0 0.0 17.9
2017-May-23 10:00N 37°55' W 033°37'0 0.5 17.9
2017-May-23 09:00N 37°55' W 033°38'0 0.0 17.9
2017-May-23 08:00N 37°55' W 033°38'0 0.0 17.9
2017-May-23 07:00N 37°55' W 033°38'1 0.8 17.9
2017-May-23 06:00N 37°55' W 033°38'3 2.7 17.9
2017-May-23 05:00N 37°56' W 033°41'0 0.0 17.9
2017-May-23 04:00N 37°56' W 033°41'1 0.2 17.9
2017-May-23 00:00N 37°57' W 033°41'1 0.7 17.9
2017-May-22 22:00N 37°57' W 033°43'1 0.8 17.9
2017-May-22 21:00N 37°58' W 033°44'1 1.1 17.9
2017-May-22 20:00N 37°57' W 033°45'0 0.0 17.9
2017-May-22 19:00N 37°57' W 033°45'2 2.2 17.9
2017-May-22 18:00N 37°56' W 033°47'0 0.0 17.9
2017-May-22 16:00N 37°56' W 033°47'1 1.3 18.0
2017-May-22 15:00N 37°55' W 033°47'0 0.0 17.9
2017-May-22 13:00N 37°55' W 033°47'1 1.1 17.9
2017-May-22 12:00N 37°55' W 033°48'0 0.0 17.9
2017-May-22 11:00N 37°55' W 033°48'0 0.0 17.9
2017-May-22 10:00N 37°55' W 033°48'1 1.1 17.9
2017-May-22 09:00N 37°56' W 033°49'1 0.8 17.9
2017-May-22 08:00N 37°56' W 033°50'0 0.0 17.9
2017-May-22 07:00N 37°56' W 033°50'2 1.5 17.9
2017-May-22 06:00N 37°57' W 033°52'3 2.7 17.9
2017-May-22 05:00N 37°56' W 033°55'2 2.0 18.0
2017-May-22 04:00N 37°56' W 033°52'2 0.4 18.0
2017-May-22 00:00N 37°56' W 033°54'2 1.5 18.0
2017-May-21 23:00N 37°55' W 033°55'1 0.8 18.1
2017-May-21 22:00N 37°54' W 033°55'0 0.5 18.0
2017-May-21 21:00N 37°54' W 033°55'0 0.0 18.1
2017-May-21 20:00N 37°54' W 033°55'0 0.0 18.1
2017-May-21 19:00N 37°54' W 033°55'1 0.8 18.0
2017-May-21 18:00N 37°55' W 033°56'0 0.0 18.1
2017-May-21 17:00N 37°55' W 033°56'0 0.0 18.1
2017-May-21 16:00N 37°55' W 033°56'0 0.0 18.1
2017-May-21 15:00N 37°55' W 033°56'0 0.0 18.0
2017-May-21 14:00N 37°55' W 033°56'1 0.6 18.0
2017-May-21 12:00N 37°56' W 033°56'0 0.0 17.8
2017-May-21 11:00N 37°56' W 033°56'2 2.0 17.8
2017-May-21 10:00N 37°56' W 033°58'0 0.0 17.8
2017-May-21 08:00N 37°56' W 033°58'0 0.0 17.8
2017-May-21 07:00N 37°56' W 033°58'2 1.5 17.8
2017-May-21 06:00N 37°56' W 034°00'0 0.0 17.8
2017-May-21 05:00N 37°56' W 034°00'2 2.4 17.8
2017-May-21 04:00N 37°53' W 034°00'0 0.0 17.8
2017-May-21 00:00N 37°53' W 034°00'2 2.0 17.8
2017-May-20 23:00N 37°53' W 034°02'2 2.2 17.8
2017-May-20 22:00N 37°54' W 034°00'1 0.8 17.8
2017-May-20 21:00N 37°53' W 033°59'1 1.2 17.8
2017-May-20 20:00N 37°55' W 033°59'0 0.2 17.9
2017-May-20 18:00N 37°55' W 034°00'0 0.0 17.9
2017-May-20 17:00N 37°55' W 034°00'2 1.5 17.8
2017-May-20 16:00N 37°56' W 034°01'1 0.5 17.8
2017-May-20 14:00N 37°56' W 034°02'1 1.1 17.7
2017-May-20 13:00N 37°55' W 034°04'0 0.0 17.7
2017-May-20 12:00N 37°55' W 034°04'0 0.0 17.7
2017-May-20 11:00N 37°55' W 034°04'1 0.8 17.7
2017-May-20 10:00N 37°55' W 034°04'1 0.9 17.7
2017-May-20 09:00N 37°55' W 034°05'0 0.0 17.7
2017-May-20 08:00N 37°55' W 034°05'1 1.1 17.8
2017-May-20 07:00N 37°54' W 034°04'2 1.9 17.8
2017-May-20 06:00N 37°54' W 034°07'2 1.5 17.8
2017-May-20 05:00N 37°53' W 034°05'1 0.2 17.8
2017-May-20 00:00N 37°53' W 034°07'   17.8

Dump ship's entire track history